Time;durP1;ratioP1;P1;durP2;ratioP2;P2;SDS_P1;SDS_P2;PMS_P1;PMS_P2;Temp;Humidity;BMP_temperature;BMP_pressure;BME280_temperature;BME280_humidity;BME280_pressure;Samples;Min_cycle;Max_cycle;Signal;HPM_P1;HPM_P2
2021/08/21 00:02:26;;;;;;;45.28;19.95;;;;;;;16.82;70.96;100204.91;5107352;28;20043;-68
2021/08/21 00:04:55;;;;;;;47.90;20.48;;;;;;;16.77;71.03;100202.69;5107899;28;20352;-68
2021/08/21 00:07:22;;;;;;;42.28;20.88;;;;;;;16.74;70.96;100207.50;5108658;28;20059;-72
2021/08/21 00:09:50;;;;;;;44.55;21.67;;;;;;;16.69;71.12;100202.63;5107508;28;20051;-67
2021/08/21 00:12:17;;;;;;;51.45;21.92;;;;;;;16.67;71.29;100209.91;5108499;28;20051;-67
2021/08/21 00:14:44;;;;;;;48.63;22.10;;;;;;;16.65;71.11;100214.56;5108874;28;20047;-67
2021/08/21 00:17:10;;;;;;;49.67;21.15;;;;;;;16.64;71.09;100204.91;5107453;28;20043;-67
2021/08/21 00:19:37;;;;;;;49.30;21.65;;;;;;;16.62;71.16;100199.72;5108208;28;20050;-68
2021/08/21 00:22:06;;;;;;;54.13;23.85;;;;;;;16.59;71.26;100213.34;5108719;28;20059;-73
2021/08/21 00:24:33;;;;;;;50.97;22.73;;;;;;;16.57;71.28;100218.00;5107027;28;20483;-69
2021/08/21 00:27:00;;;;;;;45.45;22.00;;;;;;;16.56;71.17;100220.81;5107903;28;20051;-68
2021/08/21 00:29:27;;;;;;;50.42;22.67;;;;;;;16.51;71.19;100207.09;5108371;28;20056;-66
2021/08/21 00:31:53;;;;;;;47.22;20.80;;;;;;;16.49;71.12;100209.06;5109247;28;20039;-67
2021/08/21 00:34:20;;;;;;;54.75;22.20;;;;;;;16.42;71.25;100212.38;5108961;28;20054;-78
2021/08/21 00:36:47;;;;;;;58.80;24.35;;;;;;;16.40;71.29;100217.00;5108354;28;20048;-67
2021/08/21 00:39:16;;;;;;;48.15;22.92;;;;;;;16.39;71.41;100211.81;5106641;28;20117;-65
2021/08/21 00:41:44;;;;;;;55.70;23.15;;;;;;;16.35;71.37;100216.63;5108539;28;20039;-71
2021/08/21 00:44:11;;;;;;;53.10;22.25;;;;;;;16.33;71.41;100221.25;5107780;28;20689;-66
2021/08/21 00:47:00;;;;;;;58.15;23.45;;;;;;;16.37;71.39;100213.81;5107397;28;20491;-66
2021/08/21 00:49:29;;;;;;;54.13;22.77;;;;;;;16.34;71.23;100217.59;5108481;28;20048;-66
2021/08/21 00:51:56;;;;;;;62.78;25.25;;;;;;;16.36;71.27;100217.44;5107503;28;20047;-67
2021/08/21 00:54:24;;;;;;;62.75;25.33;;;;;;;16.43;71.17;100213.19;5108406;28;20067;-67
2021/08/21 00:56:53;;;;;;;63.35;24.52;;;;;;;16.49;71.04;100217.91;5108468;28;20147;-67
2021/08/21 00:59:20;;;;;;;51.85;22.38;;;;;;;16.51;70.99;100215.97;5106745;28;20555;-68
2021/08/21 01:01:47;;;;;;;50.15;22.52;;;;;;;16.54;70.79;100210.31;5107174;28;20047;-68
2021/08/21 01:04:14;;;;;;;59.65;25.63;;;;;;;16.53;70.95;100219.31;5109935;28;20055;-66
2021/08/21 01:06:41;;;;;;;61.10;25.02;;;;;;;16.54;71.04;100220.13;5111439;28;20048;-67
2021/08/21 01:09:08;;;;;;;57.08;24.10;;;;;;;16.57;70.96;100218.00;5111554;28;20055;-66
2021/08/21 01:11:37;;;;;;;60.35;23.38;;;;;;;16.63;70.81;100214.72;5111880;28;20056;-67
2021/08/21 01:14:04;;;;;;;62.90;24.92;;;;;;;16.66;70.69;100213.59;5110915;28;20604;-67
2021/08/21 01:16:31;;;;;;;55.58;23.98;;;;;;;16.67;70.65;100204.59;5111860;28;20048;-66
2021/08/21 01:18:59;;;;;;;55.60;24.00;;;;;;;16.69;70.71;100212.44;5112401;28;20043;-67
2021/08/21 01:21:26;;;;;;;54.70;23.33;;;;;;;16.68;70.75;100210.78;5111245;28;20139;-67
2021/08/21 01:23:53;;;;;;;63.45;22.88;;;;;;;16.66;70.75;100205.59;5111827;28;20043;-67
2021/08/21 01:26:20;;;;;;;58.30;23.85;;;;;;;16.69;70.84;100207.09;5112508;28;20058;-69
2021/08/21 01:28:48;;;;;;;60.67;22.83;;;;;;;16.75;70.67;100206.53;5110920;28;20495;-66
2021/08/21 01:31:15;;;;;;;58.53;24.88;;;;;;;16.81;70.52;100203.22;5093440;28;20040;-68
2021/08/21 01:33:43;;;;;;;60.20;22.77;;;;;;;16.82;70.38;100204.91;5112298;28;20491;-66
2021/08/21 01:36:10;;;;;;;50.05;23.05;;;;;;;16.80;70.44;100204.25;5110197;28;20048;-67
2021/08/21 01:38:36;;;;;;;47.72;21.17;;;;;;;16.71;70.45;100203.31;5111974;28;20055;-67
2021/08/21 01:41:03;;;;;;;41.67;19.70;;;;;;;16.63;70.61;100204.06;5111720;28;20044;-68
2021/08/21 01:43:30;;;;;;;46.95;20.17;;;;;;;16.54;70.89;100210.31;5110817;28;20436;-67
2021/08/21 01:45:58;;;;;;;50.20;19.58;;;;;;;16.46;70.82;100204.91;5111907;28;20047;-74
2021/08/21 01:48:25;;;;;;;45.00;18.73;;;;;;;16.40;71.13;100208.16;5112800;28;20617;-70
2021/08/21 01:50:52;;;;;;;42.47;20.60;;;;;;;16.34;71.14;100209.59;5110742;28;20632;-67
2021/08/21 01:53:19;;;;;;;43.85;20.55;;;;;;;16.31;70.98;100209.88;5111984;28;20062;-68
2021/08/21 01:55:47;;;;;;;48.45;19.60;;;;;;;16.34;71.18;100208.75;5112369;28;20592;-67
2021/08/21 01:58:19;;;;;;;45.15;20.85;;;;;;;16.38;71.19;100210.13;5111449;28;20055;-70
2021/08/21 02:00:46;;;;;;;49.05;22.23;;;;;;;16.42;71.08;100212.38;5111426;28;20714;-67
2021/08/21 02:03:15;;;;;;;51.38;21.88;;;;;;;16.45;70.83;100205.88;5110911;28;20051;-69
2021/08/21 02:05:41;;;;;;;51.25;20.00;;;;;;;16.47;70.75;100198.56;5110701;28;20147;-64
2021/08/21 02:08:08;;;;;;;53.72;19.67;;;;;;;16.47;70.65;100206.56;5111573;28;20495;-65
2021/08/21 02:10:35;;;;;;;48.72;20.90;;;;;;;16.50;70.58;100208.94;5111226;28;20047;-66
2021/08/21 02:13:03;;;;;;;46.97;19.85;;;;;;;16.55;70.56;100205.84;5110510;28;20495;-66
2021/08/21 02:15:30;;;;;;;47.35;19.55;;;;;;;16.59;70.38;100204.53;5110756;28;20046;-65
2021/08/21 02:17:56;;;;;;;41.35;19.52;;;;;;;16.65;70.25;100211.06;5110056;28;20046;-67
2021/08/21 02:20:25;;;;;;;44.20;19.65;;;;;;;16.72;70.28;100206.81;5110683;28;20056;-66
2021/08/21 02:22:52;;;;;;;41.25;19.42;;;;;;;16.79;70.15;100210.56;5111577;28;20043;-70
2021/08/21 02:25:19;;;;;;;46.40;22.00;;;;;;;16.82;69.97;100204.91;5111210;28;20086;-68
2021/08/21 02:27:55;;;;;;;44.33;19.75;;;;;;;16.81;70.10;100206.72;5110874;28;20052;-65
2021/08/21 02:30:22;;;;;;;38.92;19.42;;;;;;;16.79;69.96;100207.88;5111375;28;20164;-63
2021/08/21 02:32:49;;;;;;;39.45;19.88;;;;;;;16.76;70.12;100202.84;5110099;28;20054;-65
2021/08/21 02:35:16;;;;;;;43.60;19.60;;;;;;;16.73;70.20;100213.84;5110514;28;20055;-66
2021/08/21 02:37:44;;;;;;;46.67;18.38;;;;;;;16.71;70.33;100210.47;5111059;28;20048;-66
2021/08/21 02:40:13;;;;;;;32.60;15.63;;;;;;;16.66;70.20;100210.94;5110467;28;20043;-64
2021/08/21 02:42:39;;;;;;;40.85;18.80;;;;;;;16.57;70.42;100219.84;5110347;28;20605;-67
2021/08/21 02:45:08;;;;;;;40.40;18.67;;;;;;;16.48;70.56;100213.59;5110393;28;20044;-68
2021/08/21 02:47:34;;;;;;;37.67;17.85;;;;;;;16.40;70.64;100221.47;5110116;28;20447;-68
2021/08/21 02:50:01;;;;;;;42.92;19.63;;;;;;;16.36;70.71;100225.44;5109736;28;20043;-65
2021/08/21 02:52:28;;;;;;;36.45;16.33;;;;;;;16.29;70.70;100217.19;5110275;28;20052;-65
2021/08/21 02:54:56;;;;;;;40.75;17.15;;;;;;;16.21;70.72;100225.94;5109807;28;20054;-65
2021/08/21 02:57:23;;;;;;;35.28;16.85;;;;;;;16.18;70.63;100217.41;5110659;28;20392;-65
2021/08/21 02:59:52;;;;;;;34.45;16.52;;;;;;;16.19;70.69;100227.91;5110586;28;20408;-67
2021/08/21 03:02:19;;;;;;;38.92;16.75;;;;;;;16.27;70.44;100223.69;5109987;28;20039;-70
2021/08/21 03:04:46;;;;;;;45.13;17.55;;;;;;;16.33;70.29;100223.06;5111193;28;20044;-66
2021/08/21 03:07:13;;;;;;;44.42;20.80;;;;;;;16.40;70.17;100219.69;5110858;28;20039;-66
2021/08/21 03:09:40;;;;;;;51.67;22.40;;;;;;;16.45;70.25;100219.22;5110579;28;20055;-66
2021/08/21 03:12:08;;;;;;;52.95;21.92;;;;;;;16.45;70.29;100211.22;5110689;28;20700;-68
2021/08/21 03:14:35;;;;;;;54.20;22.48;;;;;;;16.51;70.32;100226.63;5110269;28;20044;-68
2021/08/21 03:17:02;;;;;;;53.78;22.70;;;;;;;16.63;69.98;100213.91;5110068;28;20062;-66
2021/08/21 03:19:29;;;;;;;57.33;24.02;;;;;;;16.77;69.72;100217.88;5109803;28;20050;-67
2021/08/21 03:21:56;;;;;;;47.40;19.42;;;;;;;16.84;69.75;100210.97;5109845;28;20055;-64
2021/08/21 03:24:23;;;;;;;43.63;18.60;;;;;;;16.88;69.74;100215.00;5109292;28;20415;-67
2021/08/21 03:26:50;;;;;;;45.00;19.98;;;;;;;16.92;69.68;100219.03;5108640;28;20059;-67
2021/08/21 03:29:18;;;;;;;35.65;17.98;;;;;;;17.02;69.66;100228.81;5108490;28;20055;-67
2021/08/21 03:31:45;;;;;;;39.72;19.52;;;;;;;17.10;69.50;100232.34;5109309;28;20062;-66
2021/08/21 03:34:11;;;;;;;38.65;17.35;;;;;;;17.16;69.32;100231.75;5109819;28;20063;-66
2021/08/21 03:36:38;;;;;;;35.30;17.20;;;;;;;17.20;69.18;100234.94;5109055;28;20048;-69
2021/08/21 03:39:05;;;;;;;36.05;16.80;;;;;;;17.22;69.12;100224.94;5109523;28;20667;-68
2021/08/21 03:41:32;;;;;;;42.42;19.08;;;;;;;17.26;69.22;100225.47;5109703;28;20510;-66
2021/08/21 03:43:59;;;;;;;41.15;20.60;;;;;;;17.33;69.12;100226.53;5108863;28;20044;-66
2021/08/21 03:46:27;;;;;;;36.67;16.80;;;;;;;17.35;68.92;100233.38;5108651;28;20052;-68
2021/08/21 03:48:54;;;;;;;36.63;15.88;;;;;;;17.35;68.72;100236.06;5091433;28;20048;-66
2021/08/21 03:51:21;;;;;;;30.58;16.08;;;;;;;17.36;68.69;100234.25;5108017;28;20052;-67
2021/08/21 03:53:48;;;;;;;30.85;15.15;;;;;;;17.38;68.74;100238.41;5109596;28;20054;-68
2021/08/21 03:56:15;;;;;;;34.10;16.48;;;;;;;17.45;68.66;100251.13;5110436;28;20048;-68
2021/08/21 03:58:41;;;;;;;54.33;27.88;;;;;;;17.41;69.00;100255.13;5109571;28;20055;-68
2021/08/21 04:01:08;;;;;;;48.55;24.65;;;;;;;17.39;69.26;100248.13;5109097;28;20048;-68
2021/08/21 04:03:37;;;;;;;56.47;25.42;;;;;;;17.45;69.51;100246.66;5109084;28;20047;-66
2021/08/21 04:06:04;;;;;;;32.53;17.25;;;;;;;17.50;69.44;100254.19;5112798;28;20051;-67
2021/08/21 04:08:31;;;;;;;33.50;17.83;;;;;;;17.57;69.20;100256.09;5109146;28;20054;-69
2021/08/21 04:10:58;;;;;;;39.47;18.25;;;;;;;17.67;69.07;100263.97;5109340;28;20044;-71
2021/08/21 04:13:24;;;;;;;58.35;26.92;;;;;;;17.68;69.12;100265.69;5107428;28;20050;-70
2021/08/21 04:15:51;;;;;;;58.92;27.80;;;;;;;17.66;69.56;100264.97;5109045;28;20040;-68
2021/08/21 04:18:18;;;;;;;46.47;22.60;;;;;;;17.72;69.48;100264.34;5108141;28;20050;-68
2021/08/21 04:20:46;;;;;;;38.30;19.98;;;;;;;17.77;69.46;100272.75;5108660;28;20043;-69
2021/08/21 04:23:13;;;;;;;35.70;18.50;;;;;;;17.83;69.16;100270.44;5109085;28;20172;-69
2021/08/21 04:25:40;;;;;;;41.38;18.88;;;;;;;17.89;69.18;100273.31;5108849;28;20052;-68
2021/08/21 04:28:09;;;;;;;40.88;18.45;;;;;;;17.94;68.79;100275.53;5108686;28;20108;-71
2021/08/21 04:30:36;;;;;;;51.90;25.83;;;;;;;17.93;68.88;100271.16;5108682;28;20047;-67
2021/08/21 04:33:02;;;;;;;51.72;29.90;;;;;;;17.80;69.41;100271.56;5110436;28;20040;-69
2021/08/21 04:35:30;;;;;;;43.47;24.90;;;;;;;17.82;69.57;100279.44;5108141;28;20043;-68
2021/08/21 04:38:01;;;;;;;52.38;31.25;;;;;;;17.77;69.66;100271.88;5109260;28;20051;-68
2021/08/21 04:40:28;;;;;;;47.92;28.40;;;;;;;17.75;69.69;100273.88;5107796;28;20492;-68
2021/08/21 04:42:55;;;;;;;49.00;30.70;;;;;;;17.71;69.90;100278.69;5108300;28;20058;-71
2021/08/21 04:45:22;;;;;;;44.28;28.35;;;;;;;17.64;70.02;100282.97;5109217;28;20051;-66
2021/08/21 04:47:48;;;;;;;44.58;25.33;;;;;;;17.66;69.92;100285.50;5107200;28;20048;-69
2021/08/21 04:50:15;;;;;;;45.60;29.35;;;;;;;17.64;70.12;100285.66;5108521;28;20043;-67
2021/08/21 04:52:42;;;;;;;41.67;27.73;;;;;;;17.58;70.18;100291.63;5107967;28;20043;-69
2021/08/21 04:55:11;;;;;;;45.42;29.73;;;;;;;17.58;69.90;100289.78;5107678;28;20055;-70
2021/08/21 04:57:38;;;;;;;47.80;27.83;;;;;;;17.64;69.81;100290.16;5109075;28;20543;-69
2021/08/21 05:00:08;;;;;;;44.38;27.65;;;;;;;17.65;69.88;100290.00;5109481;28;20048;-67
2021/08/21 05:02:34;;;;;;;40.78;30.52;;;;;;;17.60;69.82;100291.47;5108407;28;20419;-69
2021/08/21 05:05:01;;;;;;;42.33;28.10;;;;;;;17.57;69.61;100295.28;5108994;28;20051;-65
2021/08/21 05:07:28;;;;;;;37.42;25.85;;;;;;;17.67;69.59;100295.22;5108691;28;20051;-68
2021/08/21 05:09:55;;;;;;;41.55;26.65;;;;;;;17.75;69.38;100295.25;5110097;28;20040;-66
2021/08/21 05:12:23;;;;;;;40.83;25.40;;;;;;;17.90;69.40;100300.91;5108272;28;20048;-68
2021/08/21 05:14:50;;;;;;;40.45;25.88;;;;;;;18.03;69.05;100297.81;5106809;28;20085;-67
2021/08/21 05:17:17;;;;;;;40.40;28.02;;;;;;;18.03;68.98;100301.31;5107174;28;20062;-65
2021/08/21 05:19:49;;;;;;;32.78;24.70;;;;;;;17.78;68.60;100301.13;5107554;28;20047;-68
2021/08/21 05:22:24;;;;;;;38.05;26.92;;;;;;;17.66;68.54;100299.69;5107233;28;20054;-66
2021/08/21 05:24:52;;;;;;;39.92;25.90;;;;;;;17.63;68.97;100308.03;5107799;28;20110;-67
2021/08/21 05:27:20;;;;;;;41.63;25.92;;;;;;;17.72;68.86;100309.75;5108846;28;20047;-68
2021/08/21 05:29:48;;;;;;;40.72;30.00;;;;;;;17.78;68.73;100309.13;5107225;28;20048;-73
2021/08/21 05:32:15;;;;;;;41.83;27.02;;;;;;;17.87;68.60;100318.06;5108409;28;20054;-69
2021/08/21 05:34:43;;;;;;;42.20;27.83;;;;;;;17.96;68.38;100319.78;5107710;28;20050;-69
2021/08/21 05:37:10;;;;;;;35.55;24.45;;;;;;;18.01;68.13;100321.19;5107674;28;20040;-66
2021/08/21 05:39:36;;;;;;;37.95;25.23;;;;;;;18.05;68.27;100326.03;5106441;28;20043;-67
2021/08/21 05:42:06;;;;;;;38.30;24.50;;;;;;;17.96;68.09;100325.13;5109071;28;20048;-69
2021/08/21 05:44:33;;;;;;;39.05;26.02;;;;;;;18.01;68.12;100327.34;5117357;28;20093;-72
2021/08/21 05:47:01;;;;;;;33.00;23.25;;;;;;;18.00;68.01;100323.00;5110624;28;20062;-72
2021/08/21 05:49:28;;;;;;;34.28;21.48;;;;;;;18.12;67.77;100335.09;5111598;28;20111;-66
2021/08/21 05:51:55;;;;;;;33.17;21.30;;;;;;;18.28;67.29;100338.88;5115143;28;20058;-68
2021/08/21 05:54:22;;;;;;;34.20;20.65;;;;;;;18.33;67.33;100336.56;5120017;28;20074;-65
2021/08/21 05:56:48;;;;;;;30.40;22.25;;;;;;;18.39;66.94;100343.09;5125328;28;20049;-76
2021/08/21 05:59:15;;;;;;;32.22;20.90;;;;;;;18.42;66.73;100346.28;5060333;28;20043;-77
2021/08/21 06:01:42;;;;;;;27.88;17.60;;;;;;;18.59;66.69;100349.03;5110966;28;20043;-67
2021/08/21 06:04:10;;;;;;;29.88;19.73;;;;;;;18.73;65.79;100343.06;5113006;28;20055;-78
2021/08/21 06:06:38;;;;;;;28.38;19.38;;;;;;;18.68;65.97;100351.56;5111420;28;20135;-76
2021/08/21 06:09:05;;;;;;;29.25;18.35;;;;;;;18.76;65.83;100357.94;5112443;28;20050;-66
2021/08/21 06:11:33;;;;;;;28.83;19.67;;;;;;;18.97;65.08;100353.03;5109816;28;20048;-64
2021/08/21 06:13:59;;;;;;;29.70;20.02;;;;;;;18.88;64.70;100351.34;5110790;28;20044;-64
2021/08/21 06:16:26;;;;;;;24.40;17.42;;;;;;;18.81;64.63;100361.84;5108879;28;20051;-65
2021/08/21 06:18:55;;;;;;;27.90;20.75;;;;;;;18.75;64.79;100354.44;5109581;28;20129;-65
2021/08/21 06:21:24;;;;;;;30.42;19.98;;;;;;;18.81;64.90;100355.63;5108180;28;20055;-68
2021/08/21 06:23:50;;;;;;;31.88;24.52;;;;;;;18.66;65.55;100358.94;5109513;28;20040;-66
2021/08/21 06:26:20;;;;;;;28.00;19.90;;;;;;;18.95;65.48;100354.22;5109134;28;20484;-66
2021/08/21 06:28:47;;;;;;;32.28;18.58;;;;;;;19.53;64.40;100352.44;5092313;28;20633;-64
2021/08/21 06:31:14;;;;;;;27.80;17.27;;;;;;;19.86;63.63;100359.50;5107612;28;20048;-65
2021/08/21 06:33:40;;;;;;;28.27;17.23;;;;;;;20.12;63.16;100360.28;5107216;28;20047;-64
2021/08/21 06:36:07;;;;;;;24.40;17.40;;;;;;;20.28;62.83;100360.25;5097754;28;20036;-66
2021/08/21 06:38:36;;;;;;;27.92;17.50;;;;;;;20.34;62.32;100366.78;5108797;28;20047;-65
2021/08/21 06:41:02;;;;;;;20.70;14.77;;;;;;;20.36;62.35;100367.44;5107552;28;20491;-65
2021/08/21 06:43:29;;;;;;;24.90;18.58;;;;;;;20.31;61.31;100370.66;5107979;28;20601;-72
2021/08/21 06:45:56;;;;;;;24.10;16.33;;;;;;;20.29;61.65;100364.59;5108195;28;20048;-66
2021/08/21 06:48:23;;;;;;;22.98;15.02;;;;;;;20.60;61.05;100375.41;5106952;28;20044;-69
2021/08/21 06:50:50;;;;;;;18.42;13.80;;;;;;;20.75;61.08;100367.47;5107438;28;20047;-67
2021/08/21 06:53:17;;;;;;;24.33;17.55;;;;;;;20.88;60.18;100376.81;5108958;28;20047;-68
2021/08/21 06:55:46;;;;;;;22.88;17.00;;;;;;;20.61;60.13;100377.09;5107572;28;20043;-73
2021/08/21 06:58:13;;;;;;;24.10;17.05;;;;;;;20.51;60.32;100375.59;5108211;28;20082;-69
2021/08/21 07:00:39;;;;;;;24.90;15.98;;;;;;;20.77;60.25;100383.41;5107294;28;20057;-68
2021/08/21 07:03:06;;;;;;;19.20;15.07;;;;;;;20.85;59.60;100379.84;5105430;28;20133;-66
2021/08/21 07:05:33;;;;;;;24.92;16.90;;;;;;;20.79;59.17;100379.53;5105801;28;20047;-67
2021/08/21 07:08:00;;;;;;;22.40;16.00;;;;;;;20.92;59.97;100376.31;5069859;28;20059;-71
2021/08/21 07:10:27;;;;;;;19.80;14.60;;;;;;;21.23;58.95;100377.28;5105772;28;20047;-67
2021/08/21 07:12:56;;;;;;;18.90;13.88;;;;;;;21.62;58.25;100377.19;5106344;28;20633;-65
2021/08/21 07:15:23;;;;;;;18.55;12.60;;;;;;;21.91;57.62;100372.91;5107196;28;20063;-66
2021/08/21 07:17:50;;;;;;;20.27;14.02;;;;;;;21.70;57.99;100371.78;5096461;28;20320;-67
2021/08/21 07:20:16;;;;;;;21.15;16.17;;;;;;;21.38;57.89;100378.19;5089700;28;20048;-66
2021/08/21 07:22:43;;;;;;;21.90;16.42;;;;;;;21.04;58.43;100374.03;5037775;28;20059;-74
2021/08/21 07:25:11;;;;;;;24.73;16.13;;;;;;;21.06;59.50;100380.06;5089844;28;20594;-63
2021/08/21 07:27:38;;;;;;;22.70;14.50;;;;;;;21.39;58.83;100388.78;5095020;28;20056;-64
2021/08/21 07:30:08;;;;;;;18.55;12.27;;;;;;;21.88;57.93;100384.06;5095960;28;20044;-61
2021/08/21 07:32:35;;;;;;;18.40;15.15;;;;;;;22.19;57.57;100391.16;5095492;28;20051;-66
2021/08/21 07:35:03;;;;;;;19.92;14.80;;;;;;;22.22;57.15;100385.38;5094351;28;20043;-66
2021/08/21 07:37:30;;;;;;;17.92;13.85;;;;;;;22.60;56.56;100388.88;5099799;28;20075;-70
2021/08/21 07:39:57;;;;;;;19.67;14.77;;;;;;;22.58;55.71;100395.44;5102575;28;20052;-70
2021/08/21 07:42:24;;;;;;;21.30;16.05;;;;;;;21.89;56.23;100397.28;5104919;28;20056;-66
2021/08/21 07:44:51;;;;;;;20.77;16.23;;;;;;;21.57;56.82;100404.63;5104586;28;20540;-67
2021/08/21 07:47:19;;;;;;;21.90;15.80;;;;;;;21.55;57.12;100401.28;5098054;28;20050;-71
2021/08/21 07:49:46;;;;;;;19.17;14.38;;;;;;;21.88;57.28;100402.88;5087653;28;20056;-67
2021/08/21 07:52:13;;;;;;;23.55;15.73;;;;;;;22.41;56.25;100403.72;5088902;28;20055;-64
2021/08/21 07:54:40;;;;;;;18.92;14.90;;;;;;;22.68;55.19;100396.84;5096476;28;20044;-66
2021/08/21 07:57:06;;;;;;;18.77;14.20;;;;;;;22.78;54.87;100404.66;5087827;28;20050;-70
2021/08/21 07:59:33;;;;;;;18.58;13.65;;;;;;;22.69;55.57;100401.22;5087201;28;20052;-65
2021/08/21 08:02:01;;;;;;;22.15;14.73;;;;;;;22.52;55.90;100405.94;5086483;28;20044;-71
2021/08/21 08:04:31;;;;;;;17.08;13.68;;;;;;;22.39;56.43;100408.44;5084321;28;20668;-65
2021/08/21 08:06:58;;;;;;;20.27;13.52;;;;;;;22.58;55.23;100403.53;5086953;28;20059;-65
2021/08/21 08:09:26;;;;;;;18.55;14.57;;;;;;;22.86;53.75;100403.69;5085054;28;20055;-73
2021/08/21 08:11:53;;;;;;;16.08;12.95;;;;;;;22.86;54.14;100411.78;5085503;28;20048;-64
2021/08/21 08:14:21;;;;;;;16.52;12.77;;;;;;;23.08;54.16;100408.16;5085036;28;20040;-67
2021/08/21 08:16:48;;;;;;;15.07;10.20;;;;;;;23.21;53.77;100412.00;5085403;28;20058;-73
2021/08/21 08:19:17;;;;;;;14.90;10.82;;;;;;;23.39;53.15;100414.28;5083596;28;20044;-65
2021/08/21 08:21:45;;;;;;;16.45;11.77;;;;;;;23.25;53.44;100418.69;5084067;28;20404;-66
2021/08/21 08:24:14;;;;;;;15.40;12.18;;;;;;;22.97;52.92;100408.59;5066872;28;20044;-69
2021/08/21 08:26:40;;;;;;;15.82;10.88;;;;;;;23.13;52.67;100417.53;5085307;28;20055;-66
2021/08/21 08:29:07;;;;;;;13.98;9.73;;;;;;;23.64;51.79;100414.72;5085412;28;20044;-73
2021/08/21 08:31:34;;;;;;;14.07;11.55;;;;;;;23.80;51.11;100414.50;5085446;28;20055;-67
2021/08/21 08:34:01;;;;;;;12.88;11.40;;;;;;;23.73;51.00;100412.75;5087396;28;20048;-69
2021/08/21 08:36:28;;;;;;;11.63;9.30;;;;;;;24.14;50.78;100407.50;5086653;28;20048;-66
2021/08/21 08:38:56;;;;;;;12.27;9.45;;;;;;;24.57;50.12;100412.78;5090052;28;20044;-70
2021/08/21 08:41:24;;;;;;;10.52;8.52;;;;;;;24.91;49.70;100418.38;5093876;28;20048;-70
2021/08/21 08:43:51;;;;;;;15.15;10.57;;;;;;;25.11;49.49;100415.75;5091561;28;20400;-70
2021/08/21 08:46:19;;;;;;;10.60;8.60;;;;;;;25.11;49.10;100415.75;5090076;28;20048;-70
2021/08/21 08:48:47;;;;;;;10.88;9.38;;;;;;;24.95;48.61;100412.34;5091103;28;20052;-70
2021/08/21 08:51:14;;;;;;;11.90;9.63;;;;;;;24.63;47.90;100415.72;5089868;28;20598;-75
2021/08/21 08:53:41;;;;;;;9.68;8.63;;;;;;;23.97;48.53;100411.53;5096526;28;20048;-66
2021/08/21 08:56:09;;;;;;;10.32;9.30;;;;;;;23.55;49.02;100415.88;5092839;28;20079;-70
2021/08/21 08:58:37;;;;;;;13.30;9.63;;;;;;;23.13;50.58;100417.53;5088128;28;20052;-70
2021/08/21 09:01:04;;;;;;;12.90;8.77;;;;;;;23.34;50.05;100428.34;5087944;28;20051;-67
2021/08/21 09:03:32;;;;;;;11.23;8.77;;;;;;;23.64;48.58;100426.38;5086245;28;20048;-67
2021/08/21 09:06:00;;;;;;;11.55;10.20;;;;;;;23.79;47.96;100418.19;5091001;28;20044;-70
2021/08/21 09:08:29;;;;;;;11.52;9.65;;;;;;;23.45;48.30;100419.75;5094188;28;20602;-71
2021/08/21 09:10:57;;;;;;;9.63;8.38;;;;;;;23.45;48.70;100422.44;5086346;28;20048;-73
2021/08/21 09:13:26;;;;;;;9.48;8.00;;;;;;;23.75;48.40;100422.31;5086347;28;20040;-68
2021/08/21 09:15:57;;;;;;;10.20;7.22;;;;;;;24.21;48.31;100424.56;5089202;28;20397;-73
2021/08/21 09:18:26;;;;;;;11.13;7.05;;;;;;;24.06;48.41;100429.25;5087891;28;20044;-69
2021/08/21 09:20:59;;;;;;;8.65;7.03;;;;;;;23.75;48.80;100430.41;5093122;28;20058;-69
2021/08/21 09:23:30;;;;;;;11.35;9.43;;;;;;;23.18;49.46;100429.41;5087087;28;20080;-67
2021/08/21 09:26:05;;;;;;;8.48;7.35;;;;;;;23.29;50.75;100441.53;5092597;28;20050;-65
2021/08/21 09:28:33;;;;;;;;;;;;;;;23.98;49.30;100434.78;5088116;28;20066;-66
2021/08/21 09:31:04;;;;;;;11.02;9.93;;;;;;;23.57;48.85;100432.69;5087613;28;19920;-64
2021/08/21 09:33:32;;;;;;;11.20;9.60;;;;;;;23.25;49.54;100433.00;5093214;28;20040;-72
2021/08/21 09:35:59;;;;;;;11.18;8.05;;;;;;;23.18;50.21;100425.88;5094162;28;20143;-69
2021/08/21 09:38:32;;;;;;;9.93;8.88;;;;;;;23.19;49.11;100424.84;5094225;28;20059;-64
2021/08/21 09:41:01;;;;;;;8.48;6.68;;;;;;;23.22;50.65;100427.97;5103297;28;20047;-66
2021/08/21 09:43:32;;;;;;;8.70;7.28;;;;;;;23.70;49.62;100423.91;5102055;28;20046;-65
2021/08/21 09:46:15;;;;;;;8.85;6.85;;;;;;;24.08;48.20;100419.09;5099179;28;20134;-67
2021/08/21 09:49:02;;;;;;;9.77;8.15;;;;;;;23.73;48.04;100423.53;5096797;28;20048;-74
2021/08/21 09:51:40;;;;;;;11.50;9.75;;;;;;;23.37;48.84;100430.66;5101291;28;20150;-67
2021/08/21 09:54:10;;;;;;;11.27;10.05;;;;;;;23.24;49.46;100428.63;5097815;28;20052;-64
2021/08/21 09:56:38;;;;;;;11.05;8.32;;;;;;;23.28;49.66;100421.84;5103063;28;20044;-76
2021/08/21 09:59:06;;;;;;;11.43;7.93;;;;;;;23.36;48.93;100431.66;5097246;28;20054;-71
2021/08/21 10:01:35;;;;;;;13.68;8.52;;;;;;;23.51;48.98;100425.41;5101314;28;20124;-76
2021/08/21 10:04:03;;;;;;;9.85;8.85;;;;;;;23.51;48.63;100428.09;5089174;28;20119;-65
2021/08/21 10:06:31;;;;;;;12.48;9.32;;;;;;;23.43;48.63;100423.66;5095576;28;20089;-66
2021/08/21 10:09:01;;;;;;;9.68;7.82;;;;;;;23.69;48.26;100425.78;5087200;28;20044;-67
2021/08/21 10:11:28;;;;;;;9.93;7.97;;;;;;;23.75;48.08;100430.41;5091446;28;20123;-66
2021/08/21 10:13:58;;;;;;;10.20;9.07;;;;;;;23.68;48.09;100424.13;5086377;28;20044;-70
2021/08/21 10:16:25;;;;;;;9.65;8.52;;;;;;;23.54;48.11;100433.94;5095026;28;20078;-75
2021/08/21 10:18:57;;;;;;;8.60;7.00;;;;;;;23.54;48.57;100439.31;5093076;28;20040;-65
2021/08/21 10:21:24;;;;;;;8.00;6.78;;;;;;;23.52;47.61;100432.47;5094746;28;20048;-64
2021/08/21 10:23:53;;;;;;;7.03;6.30;;;;;;;23.53;47.87;100432.25;5098321;28;20521;-65
2021/08/21 10:26:27;;;;;;;9.93;7.65;;;;;;;23.80;47.73;100430.66;5100266;28;20403;-79
2021/08/21 10:28:55;;;;;;;7.43;5.18;;;;;;;24.34;47.40;100423.00;5092784;28;20040;-66
2021/08/21 10:31:38;;;;;;;11.35;8.13;;;;;;;24.76;46.20;100434.72;5093760;27;20054;-66
2021/08/21 10:34:07;;;;;;;9.98;6.72;;;;;;;24.97;45.51;100425.66;5084809;28;20109;-75
2021/08/21 10:36:50;;;;;;;8.43;5.78;;;;;;;24.72;46.73;100425.34;5082683;28;20261;-65
2021/08/21 10:39:23;;;;;;;10.07;6.20;;;;;;;24.26;44.77;100423.19;5093871;28;20048;-75
2021/08/21 10:41:51;;;;;;;5.47;4.72;;;;;;;23.97;45.29;100425.84;5091327;28;20048;-65
2021/08/21 10:44:41;;;;;;;7.65;5.60;;;;;;;23.84;45.27;100425.72;5082900;28;20668;-65
2021/08/21 10:47:08;;;;;;;8.18;6.03;;;;;;;23.76;45.74;100423.97;5087251;28;20102;-64
2021/08/21 10:49:48;;;;;;;8.48;5.85;;;;;;;23.76;45.86;100426.66;5086515;28;20052;-64
2021/08/21 10:52:55;;;;;;;8.05;6.30;;;;;;;23.80;46.22;100421.75;5085224;28;20055;-65
2021/08/21 10:55:24;;;;;;;9.68;7.35;;;;;;;23.83;46.43;100433.00;5087802;28;20415;-64
2021/08/21 10:58:09;;;;;;;8.25;6.88;;;;;;;24.13;46.52;100423.88;5086278;28;20052;-64
2021/08/21 11:00:57;;;;;;;9.45;7.55;;;;;;;24.18;45.92;100414.19;5093281;28;20032;-70
2021/08/21 11:03:47;;;;;;;8.63;7.32;;;;;;;24.00;46.74;100417.38;5100404;28;20054;-69
2021/08/21 11:06:29;;;;;;;8.75;7.20;;;;;;;23.86;47.22;100426.38;5093027;28;20039;-73
2021/08/21 11:08:59;;;;;;;6.95;5.13;;;;;;;23.77;47.32;100422.97;5086652;28;20484;-70
2021/08/21 11:11:31;;;;;;;9.20;5.30;;;;;;;24.05;47.14;100414.06;5086499;28;20044;-70
2021/08/21 11:14:01;;;;;;;7.43;5.85;;;;;;;24.10;45.43;100406.22;5086883;28;20105;-69
2021/08/21 11:16:50;;;;;;;6.57;4.80;;;;;;;24.40;44.75;100411.44;5099635;28;20054;-70
2021/08/21 11:19:37;;;;;;;6.60;4.88;;;;;;;25.23;44.01;100424.06;5095247;28;20652;-71